createdAt,value
2019-05-13T00:00:16.616Z,66.90
2019-05-13T00:01:23.321Z,66.42
2019-05-13T00:02:28.151Z,65.77
2019-05-13T00:03:33.422Z,65.70
2019-05-13T00:04:38.837Z,65.92
2019-05-13T00:05:44.556Z,65.80
2019-05-13T00:06:54.431Z,65.66
2019-05-13T00:07:56.891Z,65.36
2019-05-13T00:09:03.522Z,65.38
2019-05-13T00:10:08.307Z,65.96
2019-05-13T00:11:13.790Z,65.75
2019-05-13T00:12:19.131Z,66.03
2019-05-13T00:13:24.439Z,66.41
2019-05-13T00:14:28.867Z,66.64
2019-05-13T00:15:34.357Z,66.53
2019-05-13T00:16:38.906Z,66.38
2019-05-13T00:17:44.611Z,67.48
2019-05-13T00:18:49.270Z,67.72
2019-05-13T00:19:54.254Z,67.19
2019-05-13T00:20:58.661Z,67.34
2019-05-13T00:22:04.007Z,66.78
2019-05-13T00:23:08.522Z,66.61
2019-05-13T00:24:13.924Z,66.69
2019-05-13T00:25:19.818Z,66.21
2019-05-13T00:26:24.849Z,66.43
2019-05-13T00:27:29.255Z,66.70
2019-05-13T00:28:34.585Z,67.04
2019-05-13T00:29:39.393Z,67.41
2019-05-13T00:30:44.788Z,67.84
2019-05-13T00:31:49.183Z,67.87
2019-05-13T00:32:54.670Z,67.34
2019-05-13T00:33:59.160Z,67.63
2019-05-13T00:35:04.594Z,67.25
2019-05-13T00:36:09.027Z,67.57
2019-05-13T00:37:14.747Z,66.78
2019-05-13T00:38:19.326Z,66.48
2019-05-13T00:39:24.790Z,66.98
2019-05-13T00:40:29.279Z,67.05
2019-05-13T00:41:34.255Z,67.17
2019-05-13T00:42:38.671Z,67.18
2019-05-13T00:43:44.494Z,67.36
2019-05-13T00:44:49.049Z,67.41
2019-05-13T00:45:54.027Z,67.53
2019-05-13T00:46:59.411Z,67.44
2019-05-13T00:48:04.949Z,67.14
2019-05-13T00:49:09.335Z,67.36
2019-05-13T00:50:14.599Z,67.19
2019-05-13T00:51:18.974Z,67.05
2019-05-13T00:52:23.956Z,67.08
2019-05-13T00:53:28.352Z,66.98
2019-05-13T00:54:34.259Z,66.75
2019-05-13T00:55:38.940Z,66.55
2019-05-13T00:56:43.910Z,67.12
2019-05-13T00:57:49.389Z,66.83
2019-05-13T00:58:54.429Z,67.04
2019-05-13T00:59:59.166Z,66.45
2019-05-13T01:01:04.200Z,66.74
2019-05-13T01:02:08.609Z,66.95
2019-05-13T01:03:14.458Z,66.76
2019-05-13T01:04:18.908Z,67.23
2019-05-13T01:05:23.894Z,66.94
2019-05-13T01:06:28.689Z,66.96
2019-05-13T01:07:34.142Z,66.88
2019-05-13T01:08:38.722Z,66.93
2019-05-13T01:09:44.324Z,67.02
2019-05-13T01:10:48.898Z,67.28
2019-05-13T01:11:53.895Z,67.74
2019-05-13T01:12:59.558Z,68.07
2019-05-13T01:14:04.668Z,67.96
2019-05-13T01:15:09.297Z,67.79
2019-05-13T01:16:15.402Z,67.82
2019-05-13T01:17:19.815Z,67.55
2019-05-13T01:18:24.851Z,67.91
2019-05-13T01:19:29.327Z,68.33
2019-05-13T01:20:35.295Z,69.04
2019-05-13T01:21:39.704Z,68.47
2019-05-13T01:22:44.737Z,68.77
2019-05-13T01:23:50.517Z,68.82
2019-05-13T01:24:55.485Z,68.71
2019-05-13T01:26:00.079Z,69.05
2019-05-13T01:27:05.115Z,69.38
2019-05-13T01:28:09.594Z,69.43
2019-05-13T01:29:14.559Z,69.19
2019-05-13T01:30:19.429Z,69.25
2019-05-13T01:31:24.423Z,69.75
2019-05-13T01:32:28.837Z,69.86
2019-05-13T01:33:35.010Z,69.79
2019-05-13T01:34:39.590Z,69.23
2019-05-13T01:35:44.942Z,69.35
2019-05-13T01:36:49.349Z,69.34
2019-05-13T01:37:54.326Z,69.56
2019-05-13T01:38:58.729Z,69.82
2019-05-13T01:40:05.172Z,70.13
2019-05-13T01:41:09.849Z,70.14
2019-05-13T01:42:15.319Z,70.38
2019-05-13T01:43:20.038Z,70.11
2019-05-13T01:44:25.008Z,69.88
2019-05-13T01:45:29.443Z,69.94
2019-05-13T01:46:34.856Z,70.22
2019-05-13T01:47:39.275Z,69.68
2019-05-13T01:48:44.303Z,69.81
2019-05-13T01:49:48.714Z,69.57
2019-05-13T01:50:54.348Z,69.75
2019-05-13T01:51:58.771Z,70.08
2019-05-13T01:53:04.502Z,70.34
2019-05-13T01:54:09.461Z,70.36
2019-05-13T01:55:14.864Z,70.61
2019-05-13T01:56:19.295Z,71.05
2019-05-13T01:57:24.263Z,70.60
2019-05-13T01:58:28.675Z,70.59
2019-05-13T01:59:34.601Z,70.81
2019-05-13T02:00:39.364Z,71.02
2019-05-13T02:01:44.743Z,70.70
2019-05-13T02:02:50.224Z,70.63
2019-05-13T02:03:55.216Z,70.61
2019-05-13T02:04:59.632Z,70.68
2019-05-13T02:06:04.755Z,70.76
2019-05-13T02:07:09.163Z,71.08
2019-05-13T02:08:14.569Z,71.43
2019-05-13T02:09:19.092Z,72.03
2019-05-13T02:10:44.352Z,71.76
2019-05-13T02:11:48.239Z,71.58
2019-05-13T02:12:53.569Z,71.78
2019-05-13T02:13:57.994Z,71.85
2019-05-13T02:15:04.383Z,72.01
2019-05-13T02:16:08.968Z,72.37
2019-05-13T02:17:14.732Z,72.18
2019-05-13T02:18:19.266Z,72.31
2019-05-13T02:19:24.614Z,72.13
2019-05-13T02:20:29.035Z,72.16
2019-05-13T02:21:34.092Z,72.31
2019-05-13T02:22:38.501Z,72.58
2019-05-13T02:23:44.264Z,72.92
2019-05-13T02:24:48.834Z,72.76
2019-05-13T02:25:54.662Z,72.68
2019-05-13T02:26:59.550Z,72.92
2019-05-13T02:28:08.933Z,72.79
2019-05-13T02:29:11.036Z,73.23
2019-05-13T02:30:16.696Z,73.14
2019-05-13T02:31:38.930Z,73.24
2019-05-13T02:32:27.890Z,73.11
2019-05-13T02:33:33.983Z,73.44
2019-05-13T02:34:38.973Z,73.27
2019-05-13T02:35:43.680Z,73.21
2019-05-13T02:36:48.787Z,73.27
2019-05-13T02:37:53.195Z,73.20
2019-05-13T02:38:58.167Z,73.51
2019-05-13T02:40:03.585Z,73.45
2019-05-13T02:41:09.365Z,73.63
2019-05-13T02:42:13.793Z,73.54
2019-05-13T02:43:18.756Z,73.69
2019-05-13T02:44:23.239Z,74.01
2019-05-13T02:45:28.585Z,73.98
2019-05-13T02:46:34.062Z,74.19
2019-05-13T02:47:39.173Z,74.11
2019-05-13T02:48:43.579Z,74.36
2019-05-13T02:49:48.582Z,74.65
2019-05-13T02:50:53.981Z,75.26
2019-05-13T02:52:02.436Z,75.12
2019-05-13T02:53:05.698Z,75.14
2019-05-13T02:54:12.424Z,75.20
2019-05-13T02:55:16.942Z,75.28
2019-05-13T02:56:22.695Z,75.43
2019-05-13T02:57:27.315Z,75.43
2019-05-13T02:58:33.318Z,75.38
2019-05-13T02:59:38.243Z,75.50
2019-05-13T03:00:44.189Z,75.86
2019-05-13T03:01:52.992Z,75.87
2019-05-13T03:02:55.623Z,75.79
2019-05-13T03:04:02.914Z,75.79
2019-05-13T03:05:07.648Z,75.72
2019-05-13T03:06:13.436Z,75.88
2019-05-13T03:07:18.663Z,75.82
2019-05-13T03:08:39.833Z,75.99
2019-05-13T03:09:32.537Z,75.94
2019-05-13T03:10:36.546Z,76.03
2019-05-13T03:11:42.548Z,76.28
2019-05-13T03:12:47.327Z,76.36
2019-05-13T03:13:53.374Z,76.36
2019-05-13T03:14:58.004Z,76.38
2019-05-13T03:16:13.796Z,76.22
2019-05-13T03:17:22.369Z,76.31
2019-05-13T03:18:26.938Z,76.75
2019-05-13T03:19:33.228Z,76.56
2019-05-13T03:20:38.423Z,76.59
2019-05-13T03:21:44.873Z,76.82
2019-05-13T03:22:52.505Z,76.97
2019-05-13T03:23:55.907Z,77.18
2019-05-13T03:25:03.095Z,77.25
2019-05-13T03:26:07.124Z,77.19
2019-05-13T03:27:12.912Z,77.31
2019-05-13T03:28:17.616Z,77.40
2019-05-13T03:29:22.656Z,76.98
2019-05-13T03:30:27.143Z,76.97
2019-05-13T03:31:35.986Z,76.92
2019-05-13T03:32:50.459Z,76.95
2019-05-13T03:33:47.553Z,77.04
2019-05-13T03:34:55.979Z,77.02
2019-05-13T03:35:59.052Z,77.02
2019-05-13T03:37:06.824Z,77.15
2019-05-13T03:38:12.792Z,77.07
2019-05-13T03:39:16.878Z,77.06
2019-05-13T03:40:23.330Z,77.29
2019-05-13T03:41:32.724Z,77.23
2019-05-13T03:42:42.282Z,77.29
2019-05-13T03:43:45.794Z,77.17
2019-05-13T03:44:53.946Z,77.27
2019-05-13T03:46:03.401Z,77.12
2019-05-13T03:47:12.509Z,77.34
2019-05-13T03:48:17.158Z,77.31
2019-05-13T03:49:25.168Z,77.36
2019-05-13T03:50:34.167Z,77.26
2019-05-13T03:51:37.280Z,77.41
2019-05-13T03:52:43.382Z,77.34
2019-05-13T03:53:53.247Z,77.46
2019-05-13T03:54:56.767Z,77.72
2019-05-13T03:56:02.835Z,77.84
2019-05-13T03:57:07.490Z,77.77
2019-05-13T03:58:13.423Z,77.90
2019-05-13T03:59:22.264Z,77.84
2019-05-13T04:00:25.746Z,77.71
2019-05-13T04:01:32.523Z,77.66
2019-05-13T04:02:37.186Z,77.59
2019-05-13T04:03:44.168Z,77.85
2019-05-13T04:04:52.847Z,77.44
2019-05-13T04:05:55.706Z,77.60
2019-05-13T04:07:02.626Z,77.80
2019-05-13T04:08:08.994Z,78.07
2019-05-13T04:09:29.826Z,78.15
2019-05-13T04:10:23.818Z,77.90
2019-05-13T04:11:29.239Z,77.76
2019-05-13T04:12:34.282Z,77.70
2019-05-13T04:13:43.005Z,77.68
2019-05-13T04:14:47.035Z,78.03
2019-05-13T04:15:54.750Z,77.67
2019-05-13T04:17:02.994Z,77.60
2019-05-13T04:18:12.287Z,77.57
2019-05-13T04:19:15.306Z,77.30
2019-05-13T04:20:23.284Z,77.27
2019-05-13T04:21:28.259Z,77.20
2019-05-13T04:22:33.507Z,77.39
2019-05-13T04:23:38.089Z,77.38
2019-05-13T04:24:43.129Z,77.22
2019-05-13T04:25:47.790Z,77.28
2019-05-13T04:26:53.547Z,77.12
2019-05-13T04:27:58.210Z,76.92
2019-05-13T04:29:03.431Z,77.12
2019-05-13T04:30:13.376Z,77.01
2019-05-13T04:31:17.255Z,77.02
2019-05-13T04:32:22.993Z,77.05
2019-05-13T04:33:28.526Z,76.63
2019-05-13T04:34:33.973Z,76.61
2019-05-13T04:35:42.370Z,76.43
2019-05-13T04:36:45.707Z,76.63
2019-05-13T04:37:52.618Z,76.57
2019-05-13T04:38:57.796Z,76.48
2019-05-13T04:40:04.034Z,76.12
2019-05-13T04:41:11.121Z,75.89
2019-05-13T04:42:15.796Z,76.02
2019-05-13T04:43:23.630Z,75.97
2019-05-13T04:44:28.072Z,76.00
2019-05-13T04:45:33.225Z,76.00
2019-05-13T04:46:39.219Z,76.13
2019-05-13T04:47:43.706Z,76.16
2019-05-13T04:48:48.693Z,76.01
2019-05-13T04:49:53.641Z,76.00
2019-05-13T04:51:02.666Z,75.33
2019-05-13T04:52:05.507Z,75.23
2019-05-13T04:53:13.640Z,75.29
2019-05-13T04:54:16.844Z,75.34
2019-05-13T04:55:23.065Z,75.11
2019-05-13T04:56:27.681Z,75.38
2019-05-13T04:57:33.347Z,74.97
2019-05-13T04:58:38.401Z,74.87
2019-05-13T04:59:44.518Z,74.49
2019-05-13T05:01:14.533Z,74.57
2019-05-13T05:02:54.804Z,74.61
2019-05-13T05:04:24.239Z,74.23
2019-05-13T05:05:52.884Z,74.20
2019-05-13T05:07:23.048Z,74.10
2019-05-13T05:08:53.050Z,74.12
2019-05-13T05:10:17.413Z,74.38
2019-05-13T05:11:42.703Z,73.71
2019-05-13T05:13:08.597Z,73.84
2019-05-13T05:14:22.263Z,73.98
2019-05-13T05:15:52.740Z,73.60
2019-05-13T05:16:58.329Z,73.16
2019-05-13T05:18:34.377Z,73.46
2019-05-13T05:19:48.196Z,72.74
2019-05-13T05:21:21.686Z,72.85
2019-05-13T05:22:57.416Z,72.48
2019-05-13T05:24:12.903Z,72.71
2019-05-13T05:25:41.640Z,72.32
2019-05-13T05:27:14.008Z,72.42
2019-05-13T05:28:52.520Z,72.31
2019-05-13T05:30:05.866Z,71.18
2019-05-13T05:31:36.453Z,71.12
2019-05-13T05:33:02.173Z,70.83
2019-05-13T05:34:26.439Z,70.72
2019-05-13T05:35:36.802Z,70.25
2019-05-13T05:37:05.984Z,69.63
2019-05-13T05:38:26.231Z,69.74
2019-05-13T05:39:31.708Z,68.66
2019-05-13T05:40:38.159Z,68.95
2019-05-13T05:41:45.988Z,68.56
2019-05-13T05:42:52.410Z,68.46
2019-05-13T05:44:02.180Z,68.08
2019-05-13T05:45:06.881Z,68.11
2019-05-13T05:46:14.162Z,68.81
2019-05-13T05:47:21.524Z,69.37
2019-05-13T05:48:27.700Z,68.92
2019-05-13T05:49:32.389Z,69.20
2019-05-13T05:50:37.963Z,68.12
2019-05-13T05:51:44.529Z,67.66
2019-05-13T05:52:51.410Z,67.88
2019-05-13T05:53:58.156Z,68.50
2019-05-13T05:55:04.282Z,68.28
2019-05-13T05:56:11.747Z,67.76
2019-05-13T05:57:18.259Z,68.14
2019-05-13T05:58:24.016Z,67.34
2019-05-13T05:59:32.027Z,67.20
2019-05-13T06:00:41.338Z,67.42
2019-05-13T06:01:48.021Z,66.76
2019-05-13T06:02:54.452Z,66.92
2019-05-13T06:04:01.550Z,67.22
2019-05-13T06:05:07.452Z,66.90
2019-05-13T06:06:15.702Z,66.89
2019-05-13T06:07:21.980Z,66.92
2019-05-13T06:08:27.109Z,66.70
2019-05-13T06:09:32.402Z,66.54
2019-05-13T06:10:49.055Z,66.82
2019-05-13T06:11:44.896Z,66.82
2019-05-13T06:12:52.282Z,66.10
2019-05-13T06:13:56.962Z,66.27
2019-05-13T06:15:02.798Z,66.45
2019-05-13T06:16:07.676Z,65.65
2019-05-13T06:17:12.730Z,66.76
2019-05-13T06:18:17.629Z,66.16
2019-05-13T06:19:22.750Z,65.93
2019-05-13T06:20:27.341Z,64.73
2019-05-13T06:21:32.457Z,64.73
2019-05-13T06:22:37.016Z,65.28
2019-05-13T06:23:42.143Z,65.07
2019-05-13T06:24:46.648Z,65.07
2019-05-13T06:25:52.652Z,65.29
2019-05-13T06:26:57.829Z,64.57
2019-05-13T06:28:02.953Z,65.65
2019-05-13T06:29:07.507Z,64.96
2019-05-13T06:30:13.336Z,63.56
2019-05-13T06:31:21.359Z,62.94
2019-05-13T06:32:26.701Z,63.12
2019-05-13T06:33:31.807Z,63.39
2019-05-13T06:34:36.877Z,63.94
2019-05-13T06:35:44.799Z,64.50
2019-05-13T06:36:49.017Z,63.97
2019-05-13T06:37:53.781Z,63.57
2019-05-13T06:38:58.902Z,62.85
2019-05-13T06:40:03.388Z,63.55
2019-05-13T06:41:12.250Z,64.03
2019-05-13T06:42:14.500Z,64.07
2019-05-13T06:43:21.162Z,64.25
2019-05-13T06:44:26.017Z,63.77
2019-05-13T06:45:31.714Z,63.77
2019-05-13T06:46:36.335Z,63.27
2019-05-13T06:47:41.688Z,63.97
2019-05-13T06:48:46.177Z,61.73
2019-05-13T06:49:51.719Z,60.22
2019-05-13T06:50:56.236Z,59.57
2019-05-13T06:52:01.898Z,58.64
2019-05-13T06:53:08.392Z,59.40
2019-05-13T06:54:13.226Z,59.83
2019-05-13T06:55:17.716Z,59.29
2019-05-13T06:56:22.717Z,57.95
2019-05-13T06:57:27.177Z,57.10
2019-05-13T06:58:32.634Z,56.98
2019-05-13T06:59:37.155Z,57.72
2019-05-13T07:00:42.891Z,58.24
2019-05-13T07:01:47.432Z,56.27
2019-05-13T07:02:52.851Z,56.78
2019-05-13T07:03:57.267Z,56.49
2019-05-13T07:05:02.586Z,55.67
2019-05-13T07:06:07.133Z,56.63
2019-05-13T07:07:16.232Z,57.63
2019-05-13T07:08:18.368Z,58.76
2019-05-13T07:09:23.383Z,59.44
2019-05-13T07:10:27.769Z,58.63
2019-05-13T07:11:32.806Z,58.06
2019-05-13T07:12:37.236Z,58.83
2019-05-13T07:13:42.356Z,56.29
2019-05-13T07:14:48.224Z,56.91
2019-05-13T07:15:53.220Z,57.82
2019-05-13T07:16:57.645Z,56.88
2019-05-13T07:18:02.624Z,57.41
2019-05-13T07:19:07.047Z,56.79
2019-05-13T07:20:12.268Z,55.67
2019-05-13T07:21:16.701Z,55.83
2019-05-13T07:22:23.600Z,54.91
2019-05-13T07:23:28.160Z,55.05
2019-05-13T07:24:33.310Z,54.87
2019-05-13T07:25:37.737Z,55.00
2019-05-13T07:26:42.799Z,55.30
2019-05-13T07:27:47.501Z,55.48
2019-05-13T07:28:53.034Z,57.63
2019-05-13T07:29:57.383Z,55.53
2019-05-13T07:31:02.479Z,56.17
2019-05-13T07:32:08.329Z,56.50
2019-05-13T07:33:13.935Z,54.30
2019-05-13T07:34:18.415Z,54.87
2019-05-13T07:35:23.404Z,54.50
2019-05-13T07:36:27.887Z,54.70
2019-05-13T07:37:33.936Z,54.74
2019-05-13T07:38:38.541Z,53.25
2019-05-13T07:39:44.908Z,54.20
2019-05-13T07:40:52.377Z,54.36
2019-05-13T07:42:04.332Z,55.37
2019-05-13T07:43:06.601Z,53.85
2019-05-13T07:44:11.983Z,53.97
2019-05-13T07:45:16.541Z,51.72
2019-05-13T07:46:22.132Z,50.76
2019-05-13T07:47:26.574Z,51.65
2019-05-13T07:48:32.143Z,49.33
2019-05-13T07:49:36.636Z,48.38
2019-05-13T07:50:54.648Z,49.50
2019-05-13T07:51:47.829Z,50.99
2019-05-13T07:52:52.823Z,50.87
2019-05-13T07:53:57.309Z,48.06
2019-05-13T07:55:02.361Z,47.18
2019-05-13T07:56:06.776Z,44.61
2019-05-13T07:57:12.300Z,45.38
2019-05-13T07:58:17.229Z,43.87
2019-05-13T07:59:22.200Z,42.33
2019-05-13T08:00:27.039Z,44.07
2019-05-13T08:01:32.835Z,42.70
2019-05-13T08:02:37.537Z,44.38
2019-05-13T08:03:42.508Z,42.43
2019-05-13T08:04:49.374Z,47.17
2019-05-13T08:05:54.006Z,45.17
2019-05-13T08:06:58.507Z,44.83
2019-05-13T08:08:03.569Z,44.13
2019-05-13T08:09:12.605Z,41.58
2019-05-13T08:10:16.315Z,44.03
2019-05-13T08:11:22.401Z,43.75
2019-05-13T08:12:27.496Z,44.15
2019-05-13T08:13:32.159Z,44.54
2019-05-13T08:14:37.136Z,41.05
2019-05-13T08:15:42.423Z,41.96
2019-05-13T08:16:47.449Z,42.10
2019-05-13T08:17:52.571Z,42.52
2019-05-13T08:18:57.646Z,42.10
2019-05-13T08:20:02.989Z,43.06
2019-05-13T08:21:09.259Z,41.46
2019-05-13T08:22:13.852Z,36.93
2019-05-13T08:23:21.541Z,38.08
2019-05-13T08:24:25.107Z,38.16
2019-05-13T08:25:31.564Z,38.65
2019-05-13T08:26:38.045Z,37.23
2019-05-13T08:27:42.837Z,37.45
2019-05-13T08:29:00.110Z,36.62
2019-05-13T08:29:53.958Z,37.28
2019-05-13T08:30:58.685Z,37.89
2019-05-13T08:32:03.666Z,37.46
2019-05-13T08:33:08.175Z,35.37
2019-05-13T08:34:13.175Z,37.75
2019-05-13T08:35:17.901Z,39.11
2019-05-13T08:36:23.621Z,36.82
2019-05-13T08:37:28.517Z,39.31
2019-05-13T08:38:33.512Z,36.79
2019-05-13T08:39:38.711Z,36.25
2019-05-13T08:40:44.262Z,37.34
2019-05-13T08:41:48.680Z,36.97
2019-05-13T08:42:53.742Z,35.47
2019-05-13T08:43:58.233Z,35.63
2019-05-13T08:45:03.285Z,31.71
2019-05-13T08:46:08.409Z,32.81
2019-05-13T08:47:13.453Z,34.84
2019-05-13T08:48:17.893Z,35.31
2019-05-13T08:49:22.928Z,36.46
2019-05-13T08:50:27.815Z,38.25
2019-05-13T08:51:34.815Z,37.87
2019-05-13T08:52:39.071Z,36.47
2019-05-13T08:53:44.079Z,34.88
2019-05-13T08:54:48.482Z,35.15
2019-05-13T08:55:53.735Z,36.84
2019-05-13T08:56:58.220Z,35.65
2019-05-13T08:58:03.257Z,33.98
2019-05-13T08:59:07.756Z,34.99
2019-05-13T09:00:13.662Z,33.16
2019-05-13T09:01:22.506Z,35.31
2019-05-13T09:02:26.381Z,36.53
2019-05-13T09:03:32.538Z,36.08
2019-05-13T09:04:38.816Z,37.66
2019-05-13T09:05:43.473Z,39.27
2019-05-13T09:06:48.611Z,40.17
2019-05-13T09:07:53.619Z,39.20
2019-05-13T09:08:58.675Z,39.06
2019-05-13T09:10:04.199Z,38.77
2019-05-13T09:11:09.184Z,38.42
2019-05-13T09:12:28.564Z,39.39
2019-05-13T09:13:22.374Z,39.40
2019-05-13T09:14:27.142Z,40.17
2019-05-13T09:15:32.179Z,40.25
2019-05-13T09:16:36.695Z,40.93
2019-05-13T09:17:42.746Z,39.68
2019-05-13T09:18:47.162Z,41.03
2019-05-13T09:19:52.189Z,39.15
2019-05-13T09:20:56.768Z,38.12
2019-05-13T09:22:03.124Z,38.07
2019-05-13T09:23:07.934Z,38.35
2019-05-13T09:24:24.603Z,35.19
2019-05-13T09:25:21.413Z,32.05
2019-05-13T09:26:26.066Z,32.60
2019-05-13T09:27:31.848Z,34.09
2019-05-13T09:28:36.946Z,33.19
2019-05-13T09:29:42.769Z,32.93
2019-05-13T09:30:47.941Z,32.13
2019-05-13T09:31:52.546Z,31.71
2019-05-13T09:32:57.538Z,31.33
2019-05-13T09:34:02.051Z,31.98
2019-05-13T09:35:07.463Z,31.67
2019-05-13T09:36:12.658Z,31.87
2019-05-13T09:37:18.037Z,31.80
2019-05-13T09:38:22.463Z,32.92
2019-05-13T09:39:27.851Z,32.40
2019-05-13T09:40:32.264Z,30.49
2019-05-13T09:41:41.224Z,29.21
2019-05-13T09:42:49.068Z,29.41
2019-05-13T09:43:51.414Z,30.12
2019-05-13T09:44:55.911Z,28.76
2019-05-13T09:46:01.974Z,29.51
2019-05-13T09:47:06.465Z,27.65
2019-05-13T09:48:12.938Z,30.77
2019-05-13T09:49:20.181Z,30.81
2019-05-13T09:50:32.155Z,29.82
2019-05-13T09:51:32.373Z,29.58
2019-05-13T09:52:39.762Z,29.66
2019-05-13T09:53:43.963Z,31.66
2019-05-13T09:54:48.962Z,31.90
2019-05-13T09:55:53.524Z,32.83
2019-05-13T09:56:58.498Z,33.34
2019-05-13T09:58:02.932Z,35.64
2019-05-13T09:59:08.212Z,33.36
2019-05-13T10:00:13.741Z,33.11
2019-05-13T10:01:18.787Z,32.94
2019-05-13T10:02:23.278Z,33.48
2019-05-13T10:03:29.762Z,34.50
2019-05-13T10:04:34.397Z,32.59
2019-05-13T10:05:39.384Z,33.49
2019-05-13T10:06:43.953Z,35.09
2019-05-13T10:07:48.929Z,34.17
2019-05-13T10:08:54.421Z,33.41
2019-05-13T10:10:01.613Z,32.08
2019-05-13T10:11:05.616Z,35.02
2019-05-13T10:12:12.103Z,33.07
2019-05-13T10:13:16.931Z,32.72
2019-05-13T10:14:23.081Z,31.44
2019-05-13T10:15:28.076Z,32.68
2019-05-13T10:16:33.114Z,35.47
2019-05-13T10:17:37.539Z,32.55
2019-05-13T10:18:42.589Z,31.91
2019-05-13T10:19:47.010Z,29.12
2019-05-13T10:20:59.062Z,31.04
2019-05-13T10:22:03.818Z,30.28
2019-05-13T10:23:09.087Z,29.29
2019-05-13T10:24:13.573Z,28.88
2019-05-13T10:25:22.416Z,30.22
2019-05-13T10:26:26.791Z,30.60
2019-05-13T10:27:32.793Z,30.59
2019-05-13T10:28:37.582Z,31.68
2019-05-13T10:29:43.277Z,32.73
2019-05-13T10:30:48.665Z,33.09
2019-05-13T10:31:54.175Z,33.48
2019-05-13T10:32:59.567Z,31.91
2019-05-13T10:34:05.462Z,33.51
2019-05-13T10:35:10.518Z,33.15
2019-05-13T10:36:15.588Z,34.02
2019-05-13T10:37:22.061Z,34.63
2019-05-13T10:38:27.956Z,35.55
2019-05-13T10:39:34.595Z,35.14
2019-05-13T10:40:43.310Z,34.82
2019-05-13T10:41:46.928Z,34.16
2019-05-13T10:42:52.460Z,33.54
2019-05-13T10:43:56.967Z,31.82
2019-05-13T10:45:02.734Z,32.76
2019-05-13T10:46:08.415Z,31.79
2019-05-13T10:47:13.391Z,31.53
2019-05-13T10:48:17.807Z,31.36
2019-05-13T10:49:22.802Z,31.04
2019-05-13T10:50:27.803Z,31.72
2019-05-13T10:51:33.044Z,33.02
2019-05-13T10:52:37.529Z,33.92
2019-05-13T10:53:42.863Z,32.39
2019-05-13T10:55:09.319Z,33.95
2019-05-13T10:56:14.530Z,33.68
2019-05-13T10:57:19.457Z,31.96
2019-05-13T10:58:24.428Z,31.58
2019-05-13T10:59:28.851Z,31.14
2019-05-13T11:00:42.935Z,28.90
2019-05-13T11:01:47.502Z,27.79
2019-05-13T11:02:52.472Z,28.56
2019-05-13T11:03:56.964Z,26.31
2019-05-13T11:05:03.143Z,26.50
2019-05-13T11:06:08.063Z,23.87
2019-05-13T11:07:13.199Z,24.90
2019-05-13T11:08:18.451Z,24.62
2019-05-13T11:09:23.493Z,25.83
2019-05-13T11:10:32.804Z,25.53
2019-05-13T11:11:37.823Z,25.77
2019-05-13T11:12:42.603Z,27.38
2019-05-13T11:13:55.182Z,27.41
2019-05-13T11:14:55.345Z,27.80
2019-05-13T11:16:02.381Z,29.68
2019-05-13T11:17:06.761Z,30.50
2019-05-13T11:18:18.931Z,31.21
2019-05-13T11:19:17.853Z,31.45
2019-05-13T11:20:23.242Z,30.55
2019-05-13T11:21:28.066Z,30.96
2019-05-13T11:22:33.048Z,30.48
2019-05-13T11:23:37.463Z,30.42
2019-05-13T11:24:43.305Z,29.24
2019-05-13T11:25:48.100Z,29.40
2019-05-13T11:26:53.434Z,28.42
2019-05-13T11:27:58.560Z,29.15
2019-05-13T11:29:04.897Z,26.45
2019-05-13T11:30:10.269Z,28.12
2019-05-13T11:31:15.725Z,26.34
2019-05-13T11:32:22.271Z,25.48
2019-05-13T11:33:26.901Z,26.99
2019-05-13T11:34:32.961Z,27.81
2019-05-13T11:35:38.313Z,25.11
2019-05-13T11:36:43.891Z,23.68
2019-05-13T11:37:48.871Z,23.10
2019-05-13T11:38:53.428Z,23.53
2019-05-13T11:39:58.725Z,24.32
2019-05-13T11:41:03.871Z,23.43
2019-05-13T11:42:08.927Z,23.88
2019-05-13T11:43:13.495Z,24.18
2019-05-13T11:44:18.530Z,24.57
2019-05-13T11:45:23.277Z,26.11
2019-05-13T11:46:28.585Z,26.67
2019-05-13T11:47:33.020Z,26.78
2019-05-13T11:48:37.991Z,27.08
2019-05-13T11:49:42.771Z,28.16
2019-05-13T11:50:50.545Z,27.30
2019-05-13T11:51:54.107Z,29.34
2019-05-13T11:53:02.920Z,28.56
2019-05-13T11:54:05.544Z,29.26
2019-05-13T11:55:13.042Z,28.84
2019-05-13T11:56:17.723Z,30.20
2019-05-13T11:57:22.713Z,29.84
2019-05-13T11:58:27.334Z,29.96
2019-05-13T11:59:33.129Z,29.52
2019-05-13T12:00:53.326Z,27.97
2019-05-13T12:01:58.718Z,26.57
2019-05-13T12:03:04.252Z,26.87
2019-05-13T12:04:09.656Z,27.61
2019-05-13T12:05:14.811Z,26.69
2019-05-13T12:06:22.934Z,28.41
2019-05-13T12:07:26.056Z,24.25
2019-05-13T12:08:33.855Z,25.66
2019-05-13T12:09:37.219Z,24.59
2019-05-13T12:10:43.994Z,23.23
2019-05-13T12:11:48.635Z,24.55
2019-05-13T12:12:53.629Z,25.64
2019-05-13T12:13:58.040Z,25.96
2019-05-13T12:15:26.572Z,25.80
2019-05-13T12:16:12.934Z,23.49
2019-05-13T12:17:17.164Z,24.25
2019-05-13T12:18:23.696Z,23.80
2019-05-13T12:19:28.326Z,24.73
2019-05-13T12:20:32.976Z,25.61
2019-05-13T12:21:43.414Z,24.42
2019-05-13T12:22:44.080Z,25.86
2019-05-13T12:23:49.211Z,27.45
2019-05-13T12:24:53.625Z,22.62
2019-05-13T12:25:58.670Z,23.72
2019-05-13T12:27:03.948Z,24.15
2019-05-13T12:28:11.363Z,24.83
2019-05-13T12:29:19.181Z,25.11
2019-05-13T12:30:23.894Z,26.04
2019-05-13T12:31:28.313Z,27.73
2019-05-13T12:32:33.326Z,27.43
2019-05-13T12:33:37.816Z,27.00
2019-05-13T12:34:45.788Z,26.50
2019-05-13T12:35:52.555Z,26.72
2019-05-13T12:36:56.688Z,26.59
2019-05-13T12:38:01.139Z,27.36
2019-05-13T12:39:08.215Z,27.94
2019-05-13T12:40:13.069Z,26.94
2019-05-13T12:41:18.130Z,26.64
2019-05-13T12:42:22.856Z,27.25
2019-05-13T12:43:28.036Z,28.55
2019-05-13T12:44:32.531Z,27.03
2019-05-13T12:45:37.512Z,26.87
2019-05-13T12:46:49.724Z,27.60
2019-05-13T12:47:48.691Z,27.98
2019-05-13T12:48:53.384Z,28.42
2019-05-13T12:49:58.743Z,26.50
2019-05-13T12:51:03.461Z,27.52
2019-05-13T12:52:08.559Z,29.88
2019-05-13T12:53:13.059Z,29.71
2019-05-13T12:54:18.436Z,29.64
2019-05-13T12:55:23.263Z,30.81
2019-05-13T12:56:28.278Z,31.31
2019-05-13T12:57:32.806Z,31.13
2019-05-13T12:58:37.828Z,31.67
2019-05-13T12:59:43.517Z,32.10
2019-05-13T13:00:48.821Z,31.31
2019-05-13T13:01:53.308Z,32.42
2019-05-13T13:02:58.283Z,32.11
2019-05-13T13:04:02.786Z,32.03
2019-05-13T13:05:10.569Z,32.10
2019-05-13T13:06:36.580Z,31.67
2019-05-13T13:07:21.587Z,31.83
2019-05-13T13:08:40.031Z,32.58
2019-05-13T13:09:33.720Z,32.47
2019-05-13T13:10:38.516Z,31.59
2019-05-13T13:11:44.050Z,32.12
2019-05-13T13:12:48.552Z,33.33
2019-05-13T13:13:59.607Z,34.65
2019-05-13T13:15:06.568Z,35.25
2019-05-13T13:16:06.841Z,37.19
2019-05-13T13:17:12.921Z,37.27
2019-05-13T13:18:18.098Z,37.20
2019-05-13T13:19:22.508Z,36.48
2019-05-13T13:20:27.636Z,36.01
2019-05-13T13:21:36.922Z,35.83
2019-05-13T13:22:40.504Z,35.83
2019-05-13T13:23:44.975Z,37.38
2019-05-13T13:24:55.755Z,34.98
2019-05-13T13:25:57.183Z,35.09
2019-05-13T13:27:02.419Z,36.33
2019-05-13T13:28:11.411Z,37.01
2019-05-13T13:29:13.673Z,37.26
2019-05-13T13:30:18.827Z,35.77
2019-05-13T13:31:25.383Z,35.21
2019-05-13T13:32:33.132Z,34.77
2019-05-13T13:33:36.749Z,35.90
2019-05-13T13:34:43.900Z,33.91
2019-05-13T13:35:55.968Z,34.06
2019-05-13T13:36:54.085Z,33.54
2019-05-13T13:38:03.747Z,34.32
2019-05-13T13:39:07.651Z,34.24
2019-05-13T13:40:13.065Z,34.53
2019-05-13T13:41:22.757Z,36.05
2019-05-13T13:42:24.297Z,34.98
2019-05-13T13:43:28.716Z,34.42
2019-05-13T13:44:35.068Z,35.53
2019-05-13T13:46:49.230Z,35.76
2019-05-13T13:48:02.285Z,35.37
2019-05-13T13:48:59.572Z,35.14
2019-05-13T13:50:06.361Z,35.65
2019-05-13T13:51:14.004Z,34.78
2019-05-13T13:52:17.447Z,34.02
2019-05-13T13:53:26.003Z,33.36
2019-05-13T13:54:28.558Z,33.16
2019-05-13T13:55:34.100Z,31.34
2019-05-13T13:56:42.724Z,30.28
2019-05-13T13:57:45.702Z,30.27
2019-05-13T13:58:50.102Z,31.06
2019-05-13T14:00:20.815Z,30.78
2019-05-13T14:01:10.509Z,31.76
2019-05-13T14:02:08.322Z,30.65
2019-05-13T14:03:12.808Z,31.07
2019-05-13T14:04:17.802Z,30.41
2019-05-13T14:05:24.698Z,29.02
2019-05-13T14:07:22.561Z,29.23
2019-05-13T14:07:38.824Z,28.81
2019-05-13T14:08:43.309Z,30.35
2019-05-13T14:09:47.753Z,29.82
2019-05-13T14:10:52.717Z,28.74
2019-05-13T14:11:57.464Z,29.31
2019-05-13T14:13:04.855Z,28.51
2019-05-13T14:14:08.552Z,28.28